createdAt,value
2023-01-21T00:00:26.274Z,2.31
2023-01-21T00:03:51.554Z,2.31
2023-01-21T00:07:16.748Z,2.3
2023-01-21T00:10:41.989Z,2.3
2023-01-21T00:14:07.291Z,2.27
2023-01-21T00:17:32.520Z,2.29
2023-01-21T00:20:57.769Z,2.25
2023-01-21T00:24:23.017Z,2.2
2023-01-21T00:27:48.259Z,2.17
2023-01-21T00:31:13.656Z,2.16
2023-01-21T00:34:38.769Z,2.15
2023-01-21T00:38:04.009Z,2.16
2023-01-21T00:41:29.265Z,2.19
2023-01-21T00:44:54.509Z,2.21
2023-01-21T00:48:19.783Z,2.18
2023-01-21T00:51:44.988Z,2.16
2023-01-21T00:55:10.250Z,2.16
2023-01-21T00:58:35.502Z,2.14
2023-01-21T01:02:00.775Z,2.06
2023-01-21T01:05:26.057Z,1.91
2023-01-21T01:08:51.614Z,1.78
2023-01-21T01:12:16.856Z,1.68
2023-01-21T01:15:42.121Z,1.66
2023-01-21T01:19:07.373Z,1.67
2023-01-21T01:22:33.038Z,1.69
2023-01-21T01:25:58.246Z,1.7
2023-01-21T01:29:23.473Z,1.67
2023-01-21T01:32:48.733Z,1.63
2023-01-21T01:36:14.005Z,1.6
2023-01-21T01:39:39.284Z,1.51
2023-01-21T01:43:04.526Z,1.37
2023-01-21T01:46:29.803Z,1.3
2023-01-21T01:49:54.999Z,1.33
2023-01-21T01:53:20.244Z,1.37
2023-01-21T01:56:45.516Z,1.38
2023-01-21T02:00:10.732Z,1.34
2023-01-21T02:03:35.980Z,1.32
2023-01-21T02:07:01.252Z,1.31
2023-01-21T02:10:26.510Z,1.25
2023-01-21T02:13:51.756Z,1.19
2023-01-21T02:17:17.015Z,1.18
2023-01-21T02:20:42.241Z,1.16
2023-01-21T02:24:07.491Z,1.13
2023-01-21T02:27:32.759Z,1.13
2023-01-21T02:30:58.086Z,1.13
2023-01-21T02:34:23.190Z,1.14
2023-01-21T02:37:48.439Z,1.11
2023-01-21T02:41:13.679Z,1.15
2023-01-21T02:44:38.956Z,1.21
2023-01-21T02:48:04.190Z,1.2
2023-01-21T02:51:29.403Z,1.12
2023-01-21T02:54:54.659Z,1.05
2023-01-21T02:58:19.911Z,0.98
2023-01-21T03:01:45.194Z,0.92
2023-01-21T03:05:10.435Z,0.94
2023-01-21T03:08:35.651Z,0.93
2023-01-21T03:12:00.905Z,0.95
2023-01-21T03:15:26.147Z,0.92
2023-01-21T03:18:51.394Z,0.92
2023-01-21T03:22:16.653Z,0.92
2023-01-21T03:25:41.864Z,0.92
2023-01-21T03:29:07.142Z,0.93
2023-01-21T03:32:32.384Z,0.87
2023-01-21T03:35:57.601Z,0.76
2023-01-21T03:39:22.896Z,0.68
2023-01-21T03:42:48.114Z,0.67
2023-01-21T03:46:13.375Z,0.61
2023-01-21T03:49:38.621Z,0.56
2023-01-21T03:53:03.873Z,0.53
2023-01-21T03:56:29.114Z,0.48
2023-01-21T03:59:54.353Z,0.49
2023-01-21T04:03:19.608Z,0.5
2023-01-21T04:06:44.834Z,0.44
2023-01-21T04:10:10.102Z,0.39
2023-01-21T04:13:35.344Z,0.39
2023-01-21T04:17:00.591Z,0.38
2023-01-21T04:20:25.818Z,0.4
2023-01-21T04:23:51.080Z,0.43
2023-01-21T04:27:16.320Z,0.42
2023-01-21T04:30:41.624Z,0.4
2023-01-21T04:34:06.838Z,0.34
2023-01-21T04:37:32.095Z,0.33
2023-01-21T04:40:57.316Z,0.33
2023-01-21T04:44:22.576Z,0.28
2023-01-21T04:47:47.851Z,0.23
2023-01-21T04:51:13.171Z,0.21
2023-01-21T04:54:38.323Z,0.17
2023-01-21T04:58:03.568Z,0.14
2023-01-21T05:01:28.852Z,0.12
2023-01-21T05:04:54.121Z,0.1
2023-01-21T05:08:19.320Z,0.07
2023-01-21T05:11:44.559Z,0.08
2023-01-21T05:15:09.815Z,0.14
2023-01-21T05:18:35.070Z,0.14
2023-01-21T05:22:00.362Z,0.1
2023-01-21T05:25:25.550Z,0.07
2023-01-21T05:28:50.811Z,0.08
2023-01-21T05:32:16.056Z,0.12
2023-01-21T05:35:41.280Z,0.14
2023-01-21T05:39:06.566Z,0.16
2023-01-21T05:42:31.784Z,0.21
2023-01-21T05:45:57.099Z,0.23
2023-01-21T05:49:22.275Z,0.25
2023-01-21T05:52:47.507Z,0.26
2023-01-21T05:56:12.782Z,0.21
2023-01-21T05:59:37.997Z,0.22
2023-01-21T06:03:03.271Z,0.21
2023-01-21T06:06:28.489Z,0.19
2023-01-21T06:09:53.743Z,0.23
2023-01-21T06:13:18.995Z,0.27
2023-01-21T06:16:44.210Z,0.2
2023-01-21T06:20:09.448Z,0.06
2023-01-21T06:23:34.706Z,-0.02
2023-01-21T06:26:59.952Z,-0.03
2023-01-21T06:30:25.208Z,-0.08
2023-01-21T06:33:50.425Z,-0.15
2023-01-21T06:37:15.679Z,-0.17
2023-01-21T06:40:40.925Z,-0.17
2023-01-21T06:44:06.159Z,-0.2
2023-01-21T06:47:31.549Z,-0.3
2023-01-21T06:50:56.758Z,-0.36
2023-01-21T06:54:21.997Z,-0.44
2023-01-21T06:57:47.223Z,-0.49
2023-01-21T07:01:12.559Z,-0.51
2023-01-21T07:04:38.063Z,-0.57
2023-01-21T07:08:03.355Z,-0.63
2023-01-21T07:11:28.715Z,-0.66
2023-01-21T07:14:54.142Z,-0.69
2023-01-21T07:18:19.569Z,-0.7
2023-01-21T07:21:44.881Z,-0.8
2023-01-21T07:25:10.221Z,-0.8
2023-01-21T07:28:35.561Z,-0.75
2023-01-21T07:32:01.001Z,-0.69
2023-01-21T07:35:26.361Z,-0.69
2023-01-21T07:38:51.684Z,-0.7
2023-01-21T07:42:16.944Z,-0.76
2023-01-21T07:45:42.332Z,-0.82
2023-01-21T07:49:07.659Z,-0.82
2023-01-21T07:52:32.990Z,-0.79
2023-01-21T07:55:58.554Z,-0.7
2023-01-21T07:59:24.190Z,-0.65
2023-01-21T08:02:49.761Z,-0.62
2023-01-21T08:06:14.972Z,-0.52
2023-01-21T08:09:40.221Z,-0.48
2023-01-21T08:13:05.500Z,-0.53
2023-01-21T08:16:30.782Z,-0.56
2023-01-21T08:19:56.065Z,-0.58
2023-01-21T08:23:21.317Z,-0.58
2023-01-21T08:26:46.563Z,-0.53
2023-01-21T08:30:11.837Z,-0.48
2023-01-21T08:33:37.069Z,-0.51
2023-01-21T08:37:02.353Z,-0.53
2023-01-21T08:40:27.666Z,-0.55
2023-01-21T08:43:52.922Z,-0.43
2023-01-21T08:47:18.253Z,-0.37
2023-01-21T08:50:43.541Z,-0.28
2023-01-21T08:54:08.979Z,-0.18
2023-01-21T08:57:34.286Z,-0.15
2023-01-21T09:00:59.827Z,-0.12
2023-01-21T09:04:25.085Z,-0.1
2023-01-21T09:07:50.392Z,-0.07
2023-01-21T09:11:15.715Z,-0.02
2023-01-21T09:14:42.714Z,0.02
2023-01-21T09:18:08.022Z,0.13
2023-01-21T09:21:33.371Z,0.2
2023-01-21T09:24:58.650Z,0.21
2023-01-21T09:28:23.925Z,0.25
2023-01-21T09:31:49.254Z,0.2
2023-01-21T09:35:15.402Z,0.14
2023-01-21T09:38:40.422Z,0.19
2023-01-21T09:42:05.626Z,0.24
2023-01-21T09:45:30.863Z,0.28
2023-01-21T09:48:56.157Z,0.39
2023-01-21T09:52:21.391Z,0.4
2023-01-21T09:55:46.671Z,0.33
2023-01-21T09:59:11.917Z,0.3
2023-01-21T10:02:37.174Z,0.31
2023-01-21T10:06:02.430Z,0.31
2023-01-21T10:09:27.765Z,0.39
2023-01-21T10:12:53.143Z,0.46
2023-01-21T10:16:18.478Z,0.47
2023-01-21T10:19:43.883Z,0.55
2023-01-21T10:23:09.225Z,0.64
2023-01-21T10:26:34.537Z,0.77
2023-01-21T10:29:59.880Z,0.9
2023-01-21T10:33:25.166Z,0.96
2023-01-21T10:36:50.557Z,1
2023-01-21T10:40:15.901Z,1.01
2023-01-21T10:43:41.947Z,0.99
2023-01-21T10:47:07.480Z,0.96
2023-01-21T10:50:32.774Z,0.92
2023-01-21T10:53:58.057Z,0.9
2023-01-21T10:57:23.349Z,0.77
2023-01-21T11:00:48.610Z,0.71
2023-01-21T11:04:13.961Z,0.66
2023-01-21T11:07:39.221Z,0.59
2023-01-21T11:11:04.559Z,0.6
2023-01-21T11:14:30.054Z,0.59
2023-01-21T11:17:55.515Z,0.55
2023-01-21T11:21:20.879Z,0.56
2023-01-21T11:24:46.745Z,0.55
2023-01-21T11:28:12.749Z,0.55
2023-01-21T11:31:38.256Z,0.58
2023-01-21T11:35:03.413Z,0.62
2023-01-21T11:38:28.737Z,0.63
2023-01-21T11:41:54.057Z,0.63
2023-01-21T11:45:19.523Z,0.66
2023-01-21T11:48:44.812Z,0.67
2023-01-21T11:52:10.138Z,0.68
2023-01-21T11:55:35.482Z,0.65
2023-01-21T11:59:00.769Z,0.65
2023-01-21T12:02:26.121Z,0.7
2023-01-21T12:05:51.373Z,0.74
2023-01-21T12:09:16.710Z,0.8
2023-01-21T12:12:42.138Z,0.8
2023-01-21T12:16:07.547Z,0.81
2023-01-21T12:19:33.001Z,0.82
2023-01-21T12:22:58.481Z,0.86
2023-01-21T12:26:23.947Z,0.86
2023-01-21T12:29:49.457Z,0.89
2023-01-21T12:33:14.843Z,0.97
2023-01-21T12:36:40.182Z,1.04
2023-01-21T12:40:05.542Z,1.06
2023-01-21T12:43:30.876Z,1.09
2023-01-21T12:46:56.418Z,1.02
2023-01-21T12:50:21.616Z,0.99
2023-01-21T12:53:46.921Z,0.91
2023-01-21T12:57:12.401Z,0.9
2023-01-21T13:00:37.915Z,0.84
2023-01-21T13:04:03.096Z,0.76
2023-01-21T13:07:28.415Z,0.68
2023-01-21T13:10:53.779Z,0.65
2023-01-21T13:14:19.088Z,0.68
2023-01-21T13:17:44.451Z,0.7
2023-01-21T13:21:09.889Z,0.75
2023-01-21T13:24:35.309Z,0.73
2023-01-21T13:28:00.882Z,0.67
2023-01-21T13:31:26.435Z,0.64
2023-01-21T13:34:51.948Z,0.69
2023-01-21T13:38:17.391Z,0.71
2023-01-21T13:41:42.790Z,0.75
2023-01-21T13:45:08.203Z,0.79
2023-01-21T13:48:33.668Z,0.81
2023-01-21T13:51:59.797Z,0.76
2023-01-21T13:55:25.780Z,0.69
2023-01-21T13:58:58.755Z,0.68
2023-01-21T14:02:25.280Z,0.68
2023-01-21T14:05:50.647Z,0.7
2023-01-21T14:09:21.609Z,0.77
2023-01-21T14:12:45.475Z,0.76
2023-01-21T14:16:12.283Z,0.79
2023-01-21T14:19:37.747Z,0.75
2023-01-21T14:23:03.122Z,0.66
2023-01-21T14:26:28.506Z,0.66
2023-01-21T14:29:53.869Z,0.65
2023-01-21T15:03:55.033Z,-1.31
2023-01-21T15:07:20.240Z,-0.27
2023-01-21T15:10:45.546Z,0
2023-01-21T15:14:10.907Z,0.21
2023-01-21T15:17:36.217Z,0.39
2023-01-21T15:21:01.578Z,0.53
2023-01-21T15:24:26.797Z,0.61
2023-01-21T15:27:52.046Z,0.7
2023-01-21T15:31:17.455Z,0.76
2023-01-21T15:34:42.658Z,0.86
2023-01-21T15:38:08.005Z,0.94
2023-01-21T15:41:33.228Z,0.96
2023-01-21T15:44:58.570Z,0.95
2023-01-21T15:48:33.197Z,0.94
2023-01-21T15:51:49.242Z,0.92
2023-01-21T15:55:14.619Z,0.93
2023-01-21T15:58:39.773Z,0.97
2023-01-21T16:02:05.131Z,1.01
2023-01-21T16:05:30.365Z,1.06
2023-01-21T16:08:55.754Z,1.04
2023-01-21T16:12:21.096Z,1.11
2023-01-21T16:15:46.442Z,1.17
2023-01-21T16:19:11.639Z,1.18
2023-01-21T16:22:36.942Z,1.22
2023-01-21T16:26:02.212Z,1.23
2023-01-21T16:29:27.560Z,1.26
2023-01-21T16:32:52.814Z,1.26
2023-01-21T16:36:18.118Z,1.27
2023-01-21T16:39:43.526Z,1.3
2023-01-21T16:43:08.691Z,1.36
2023-01-21T16:46:34.012Z,1.42
2023-01-21T16:49:59.273Z,1.48
2023-01-21T16:53:24.581Z,1.59
2023-01-21T16:56:49.878Z,1.65
2023-01-21T17:00:15.191Z,1.67
2023-01-21T17:03:40.482Z,1.71
2023-01-21T17:07:05.977Z,1.73
2023-01-21T17:10:31.092Z,1.71
2023-01-21T17:13:56.384Z,1.7
2023-01-21T17:17:21.979Z,1.71
2023-01-21T17:20:47.302Z,1.74
2023-01-21T17:24:12.569Z,1.76
2023-01-21T17:27:37.896Z,1.79
2023-01-21T17:31:03.461Z,1.81
2023-01-21T17:34:28.682Z,1.82
2023-01-21T17:37:54.166Z,1.76
2023-01-21T17:41:19.441Z,1.72
2023-01-21T17:44:44.788Z,1.72
2023-01-21T17:48:13.400Z,1.69
2023-01-21T17:51:35.317Z,1.7
2023-01-21T17:55:01.389Z,1.74
2023-01-21T17:58:27.400Z,1.8
2023-01-21T18:01:52.964Z,1.84
2023-01-21T18:05:18.374Z,1.86
2023-01-21T18:08:43.580Z,1.88
2023-01-21T18:12:08.980Z,1.86
2023-01-21T18:15:34.206Z,1.85
2023-01-21T18:18:59.483Z,1.86
2023-01-21T18:22:24.738Z,1.85
2023-01-21T18:25:49.993Z,1.8
2023-01-21T18:29:15.310Z,1.8
2023-01-21T18:32:42.592Z,1.86
2023-01-21T18:36:05.849Z,1.89
2023-01-21T18:39:31.107Z,1.93
2023-01-21T18:42:56.407Z,1.94
2023-01-21T18:46:21.740Z,1.96
2023-01-21T18:49:46.949Z,1.98
2023-01-21T18:53:12.221Z,2.01
2023-01-21T18:56:37.479Z,2.03
2023-01-21T19:00:02.766Z,2.03
2023-01-21T19:03:28.115Z,2.01
2023-01-21T19:06:53.362Z,2.01
2023-01-21T19:10:18.889Z,1.99
2023-01-21T19:13:43.934Z,1.99
2023-01-21T19:17:09.236Z,2
2023-01-21T19:20:34.510Z,1.95
2023-01-21T19:23:59.726Z,1.9
2023-01-21T19:27:25.062Z,1.86
2023-01-21T19:30:50.354Z,1.86
2023-01-21T19:34:15.646Z,1.87
2023-01-21T19:37:41.111Z,1.86
2023-01-21T19:41:06.328Z,1.85
2023-01-21T19:44:31.615Z,1.84
2023-01-21T19:47:56.864Z,1.85
2023-01-21T19:51:22.313Z,1.84
2023-01-21T19:54:47.523Z,1.84
2023-01-21T19:58:12.852Z,1.8
2023-01-21T20:01:38.190Z,1.78
2023-01-21T20:05:03.442Z,1.79
2023-01-21T20:08:28.751Z,1.8
2023-01-21T20:11:54.114Z,1.8
2023-01-21T20:15:19.767Z,1.85
2023-01-21T20:18:44.715Z,1.86
2023-01-21T20:22:10.033Z,1.88
2023-01-21T20:25:35.352Z,1.91
2023-01-21T20:29:00.781Z,1.9
2023-01-21T20:32:26.116Z,1.88
2023-01-21T20:35:51.443Z,1.85
2023-01-21T20:39:16.703Z,1.86
2023-01-21T20:42:42.175Z,1.88
2023-01-21T20:46:07.646Z,1.82
2023-01-21T20:49:32.912Z,1.81
2023-01-21T20:52:58.286Z,1.85
2023-01-21T20:56:23.667Z,1.85
2023-01-21T20:59:49.172Z,1.87
2023-01-21T21:03:14.566Z,1.89
2023-01-21T21:06:39.824Z,1.89
2023-01-21T21:10:05.114Z,1.92
2023-01-21T21:13:30.387Z,1.92
2023-01-21T21:16:55.715Z,1.92
2023-01-21T21:20:21.056Z,1.92
2023-01-21T21:23:46.334Z,1.96
2023-01-21T21:27:11.588Z,2.01
2023-01-21T21:30:36.953Z,2.03
2023-01-21T21:34:02.148Z,1.99
2023-01-21T21:37:27.451Z,1.97
2023-01-21T21:40:52.717Z,1.99
2023-01-21T21:44:17.956Z,2.01
2023-01-21T21:47:43.224Z,2.04
2023-01-21T21:51:08.504Z,2.1
2023-01-21T21:54:33.789Z,2.18
2023-01-21T21:57:59.017Z,2.23
2023-01-21T22:01:24.357Z,2.24
2023-01-21T22:04:49.533Z,2.28
2023-01-21T22:08:14.801Z,2.33
2023-01-21T22:11:40.088Z,2.26
2023-01-21T22:15:05.304Z,2.25
2023-01-21T22:18:30.572Z,2.27
2023-01-21T22:21:55.822Z,2.35
2023-01-21T22:25:21.125Z,2.4
2023-01-21T22:28:46.431Z,2.38
2023-01-21T22:32:11.677Z,2.4
2023-01-21T22:35:36.961Z,2.42
2023-01-21T22:39:02.243Z,2.37
2023-01-21T22:42:27.517Z,2.38
2023-01-21T22:45:52.821Z,2.41
2023-01-21T22:49:18.055Z,2.41
2023-01-21T22:52:43.332Z,2.41
2023-01-21T22:56:08.576Z,2.46
2023-01-21T22:59:33.868Z,2.5
2023-01-21T23:02:59.134Z,2.54
2023-01-21T23:06:24.384Z,2.55
2023-01-21T23:09:49.649Z,2.52
2023-01-21T23:13:14.933Z,2.52
2023-01-21T23:16:40.172Z,2.54
2023-01-21T23:20:05.479Z,2.55
2023-01-21T23:23:30.687Z,2.52
2023-01-21T23:26:55.991Z,2.48
2023-01-21T23:30:21.252Z,2.51
2023-01-21T23:33:46.509Z,2.49
2023-01-21T23:37:11.838Z,2.51
2023-01-21T23:40:37.107Z,2.5
2023-01-21T23:44:02.436Z,2.51
2023-01-21T23:47:27.735Z,2.47
2023-01-21T23:50:53.000Z,2.44
2023-01-21T23:54:18.253Z,2.42
2023-01-21T23:57:43.470Z,2.38
